sensor_id;sensor_type;location;lat;lon;timestamp;pressure;altitude;pressure_sealevel;temperature;humidity
72118;BME280;59992;47.490;8.736;2023-07-31T00:00:26;96787.46;;;13.86;93.06
72118;BME280;59992;47.490;8.736;2023-07-31T00:03:16;96782.26;;;13.83;92.68
72118;BME280;59992;47.490;8.736;2023-07-31T00:06:07;96785.60;;;13.80;93.76
72118;BME280;59992;47.490;8.736;2023-07-31T00:08:57;96781.95;;;13.78;92.35
72118;BME280;59992;47.490;8.736;2023-07-31T00:11:47;96780.48;;;13.74;93.59
72118;BME280;59992;47.490;8.736;2023-07-31T00:14:37;96773.31;;;13.71;93.86
72118;BME280;59992;47.490;8.736;2023-07-31T00:17:27;96777.10;;;13.68;92.89
72118;BME280;59992;47.490;8.736;2023-07-31T00:20:17;96777.32;;;13.66;94.74
72118;BME280;59992;47.490;8.736;2023-07-31T00:23:07;96781.50;;;13.64;95.67
72118;BME280;59992;47.490;8.736;2023-07-31T00:25:57;96786.36;;;13.63;95.69
72118;BME280;59992;47.490;8.736;2023-07-31T00:28:47;96791.31;;;13.62;94.49
72118;BME280;59992;47.490;8.736;2023-07-31T00:31:37;96789.86;;;13.61;95.03
72118;BME280;59992;47.490;8.736;2023-07-31T00:34:27;96789.55;;;13.60;96.14
72118;BME280;59992;47.490;8.736;2023-07-31T00:37:18;96785.81;;;13.58;95.15
72118;BME280;59992;47.490;8.736;2023-07-31T00:40:09;96781.17;;;13.57;95.30
72118;BME280;59992;47.490;8.736;2023-07-31T00:42:59;96777.66;;;13.57;96.22
72118;BME280;59992;47.490;8.736;2023-07-31T00:45:49;96779.86;;;13.55;93.41
72118;BME280;59992;47.490;8.736;2023-07-31T00:48:40;96780.23;;;13.53;93.95
72118;BME280;59992;47.490;8.736;2023-07-31T00:51:31;96780.30;;;13.51;96.04
72118;BME280;59992;47.490;8.736;2023-07-31T00:54:21;96778.53;;;13.49;95.92
72118;BME280;59992;47.490;8.736;2023-07-31T00:57:11;96776.35;;;13.50;96.59
72118;BME280;59992;47.490;8.736;2023-07-31T01:00:02;96775.80;;;13.48;95.52
72118;BME280;59992;47.490;8.736;2023-07-31T01:02:53;96774.02;;;13.44;96.02
72118;BME280;59992;47.490;8.736;2023-07-31T01:05:52;96771.34;;;13.42;95.65
72118;BME280;59992;47.490;8.736;2023-07-31T01:08:51;96771.33;;;13.38;96.35
72118;BME280;59992;47.490;8.736;2023-07-31T01:11:49;96773.59;;;13.34;95.96
72118;BME280;59992;47.490;8.736;2023-07-31T01:14:42;96771.30;;;13.33;95.90
72118;BME280;59992;47.490;8.736;2023-07-31T01:17:41;96767.39;;;13.29;94.80
72118;BME280;59992;47.490;8.736;2023-07-31T01:20:31;96766.63;;;13.25;94.41
72118;BME280;59992;47.490;8.736;2023-07-31T01:23:37;96759.13;;;13.20;94.60
72118;BME280;59992;47.490;8.736;2023-07-31T01:26:36;96756.91;;;13.17;96.02
72118;BME280;59992;47.490;8.736;2023-07-31T01:29:36;96754.55;;;13.15;96.64
72118;BME280;59992;47.490;8.736;2023-07-31T01:32:29;96751.94;;;13.14;97.24
72118;BME280;59992;47.490;8.736;2023-07-31T01:35:19;96752.33;;;13.14;97.93
72118;BME280;59992;47.490;8.736;2023-07-31T01:38:09;96749.45;;;13.14;97.76
72118;BME280;59992;47.490;8.736;2023-07-31T01:41:00;96747.91;;;13.13;96.45
72118;BME280;59992;47.490;8.736;2023-07-31T01:43:50;96748.73;;;13.10;97.06
72118;BME280;59992;47.490;8.736;2023-07-31T01:46:40;96741.27;;;13.07;96.99
72118;BME280;59992;47.490;8.736;2023-07-31T01:49:30;96740.33;;;13.04;97.68
72118;BME280;59992;47.490;8.736;2023-07-31T01:52:20;96738.31;;;13.01;97.26
72118;BME280;59992;47.490;8.736;2023-07-31T01:55:10;96738.90;;;12.99;97.85
72118;BME280;59992;47.490;8.736;2023-07-31T01:58:00;96735.77;;;12.98;97.40
72118;BME280;59992;47.490;8.736;2023-07-31T02:00:50;96726.89;;;12.97;97.32
72118;BME280;59992;47.490;8.736;2023-07-31T02:03:40;96722.42;;;12.92;97.07
72118;BME280;59992;47.490;8.736;2023-07-31T02:06:31;96718.17;;;12.91;96.88
72118;BME280;59992;47.490;8.736;2023-07-31T02:09:21;96716.79;;;12.89;96.76
72118;BME280;59992;47.490;8.736;2023-07-31T02:12:11;96714.27;;;12.87;97.54
72118;BME280;59992;47.490;8.736;2023-07-31T02:15:03;96717.83;;;12.85;97.66
72118;BME280;59992;47.490;8.736;2023-07-31T02:17:54;96715.70;;;12.84;96.48
72118;BME280;59992;47.490;8.736;2023-07-31T02:20:48;96714.61;;;12.81;96.92
72118;BME280;59992;47.490;8.736;2023-07-31T02:23:38;96707.76;;;12.79;96.08
72118;BME280;59992;47.490;8.736;2023-07-31T02:26:28;96701.96;;;12.76;97.26
72118;BME280;59992;47.490;8.736;2023-07-31T02:29:18;96699.90;;;12.76;97.60
72118;BME280;59992;47.490;8.736;2023-07-31T02:32:08;96696.55;;;12.74;97.03
72118;BME280;59992;47.490;8.736;2023-07-31T02:34:58;96700.67;;;12.77;97.58
72118;BME280;59992;47.490;8.736;2023-07-31T02:37:49;96701.13;;;12.77;97.07
72118;BME280;59992;47.490;8.736;2023-07-31T02:40:40;96698.92;;;12.77;97.63
72118;BME280;59992;47.490;8.736;2023-07-31T02:43:31;96697.79;;;12.78;97.83
72118;BME280;59992;47.490;8.736;2023-07-31T02:46:21;96702.28;;;12.80;96.74
72118;BME280;59992;47.490;8.736;2023-07-31T02:49:13;96701.84;;;12.79;96.23
72118;BME280;59992;47.490;8.736;2023-07-31T02:52:04;96702.05;;;12.78;95.26
72118;BME280;59992;47.490;8.736;2023-07-31T02:54:54;96702.17;;;12.76;96.43
72118;BME280;59992;47.490;8.736;2023-07-31T02:57:44;96704.08;;;12.76;95.97
72118;BME280;59992;47.490;8.736;2023-07-31T03:00:34;96704.09;;;12.77;95.72
72118;BME280;59992;47.490;8.736;2023-07-31T03:03:24;96703.80;;;12.77;96.61
72118;BME280;59992;47.490;8.736;2023-07-31T03:06:14;96700.68;;;12.79;96.76
72118;BME280;59992;47.490;8.736;2023-07-31T03:09:04;96699.85;;;12.80;96.40
72118;BME280;59992;47.490;8.736;2023-07-31T03:11:55;96695.05;;;12.78;95.49
72118;BME280;59992;47.490;8.736;2023-07-31T03:14:45;96695.05;;;12.77;95.91
72118;BME280;59992;47.490;8.736;2023-07-31T03:17:35;96699.14;;;12.74;97.27
72118;BME280;59992;47.490;8.736;2023-07-31T03:20:25;96699.95;;;12.73;97.86
72118;BME280;59992;47.490;8.736;2023-07-31T03:23:16;96707.90;;;12.78;97.44
72118;BME280;59992;47.490;8.736;2023-07-31T03:26:07;96706.17;;;12.82;98.32
72118;BME280;59992;47.490;8.736;2023-07-31T03:28:58;96705.49;;;12.84;97.23
72118;BME280;59992;47.490;8.736;2023-07-31T03:31:48;96713.05;;;12.85;98.72
72118;BME280;59992;47.490;8.736;2023-07-31T03:34:39;96711.54;;;12.89;97.96
72118;BME280;59992;47.490;8.736;2023-07-31T03:37:29;96705.77;;;12.90;96.30
72118;BME280;59992;47.490;8.736;2023-07-31T03:40:19;96703.02;;;12.90;97.58
72118;BME280;59992;47.490;8.736;2023-07-31T03:43:09;96705.86;;;12.90;97.95
72118;BME280;59992;47.490;8.736;2023-07-31T03:45:59;96704.95;;;12.93;97.83
72118;BME280;59992;47.490;8.736;2023-07-31T03:48:49;96699.23;;;12.90;97.18
72118;BME280;59992;47.490;8.736;2023-07-31T03:51:39;96714.49;;;12.98;99.00
72118;BME280;59992;47.490;8.736;2023-07-31T03:54:30;96715.41;;;13.01;97.82
72118;BME280;59992;47.490;8.736;2023-07-31T03:57:20;96720.33;;;13.04;98.65
72118;BME280;59992;47.490;8.736;2023-07-31T04:00:12;96728.57;;;13.09;99.39
72118;BME280;59992;47.490;8.736;2023-07-31T04:03:02;96729.21;;;13.15;99.65
72118;BME280;59992;47.490;8.736;2023-07-31T04:05:53;96736.48;;;13.23;99.41
72118;BME280;59992;47.490;8.736;2023-07-31T04:08:44;96737.96;;;13.29;98.05
72118;BME280;59992;47.490;8.736;2023-07-31T04:11:34;96737.55;;;13.36;98.31
72118;BME280;59992;47.490;8.736;2023-07-31T04:14:24;96735.73;;;13.43;99.04
72118;BME280;59992;47.490;8.736;2023-07-31T04:17:14;96740.05;;;13.50;99.27
72118;BME280;59992;47.490;8.736;2023-07-31T04:20:06;96732.98;;;13.57;97.64
72118;BME280;59992;47.490;8.736;2023-07-31T04:22:56;96732.41;;;13.63;95.97
72118;BME280;59992;47.490;8.736;2023-07-31T04:25:46;96737.36;;;13.67;95.74
72118;BME280;59992;47.490;8.736;2023-07-31T04:28:36;96737.38;;;13.70;95.11
72118;BME280;59992;47.490;8.736;2023-07-31T04:31:26;96740.52;;;13.74;94.70
72118;BME280;59992;47.490;8.736;2023-07-31T04:34:17;96739.16;;;13.77;95.46
72118;BME280;59992;47.490;8.736;2023-07-31T04:37:08;96736.21;;;13.84;95.98
72118;BME280;59992;47.490;8.736;2023-07-31T04:39:58;96736.69;;;13.92;94.49
72118;BME280;59992;47.490;8.736;2023-07-31T04:42:48;96740.90;;;14.02;95.57
72118;BME280;59992;47.490;8.736;2023-07-31T04:45:39;96741.67;;;14.09;95.40
72118;BME280;59992;47.490;8.736;2023-07-31T04:48:29;96743.98;;;14.18;93.67
72118;BME280;59992;47.490;8.736;2023-07-31T04:51:19;96738.81;;;14.23;93.17
72118;BME280;59992;47.490;8.736;2023-07-31T04:54:10;96732.73;;;14.26;93.90
72118;BME280;59992;47.490;8.736;2023-07-31T04:57:01;96729.40;;;14.33;93.13
72118;BME280;59992;47.490;8.736;2023-07-31T04:59:51;96731.30;;;14.38;93.07
72118;BME280;59992;47.490;8.736;2023-07-31T05:02:41;96730.40;;;14.43;92.16
72118;BME280;59992;47.490;8.736;2023-07-31T05:05:31;96735.35;;;14.46;92.29
72118;BME280;59992;47.490;8.736;2023-07-31T05:08:22;96731.63;;;14.53;91.89
72118;BME280;59992;47.490;8.736;2023-07-31T05:11:12;96730.55;;;14.58;91.13
72118;BME280;59992;47.490;8.736;2023-07-31T05:14:02;96720.04;;;14.64;91.06
72118;BME280;59992;47.490;8.736;2023-07-31T05:16:52;96718.82;;;14.71;93.26
72118;BME280;59992;47.490;8.736;2023-07-31T05:19:43;96721.24;;;14.78;92.92
72118;BME280;59992;47.490;8.736;2023-07-31T05:22:33;96713.84;;;14.88;91.72
72118;BME280;59992;47.490;8.736;2023-07-31T05:25:23;96720.31;;;14.96;90.57
72118;BME280;59992;47.490;8.736;2023-07-31T05:28:13;96716.55;;;15.03;90.92
72118;BME280;59992;47.490;8.736;2023-07-31T05:31:03;96720.44;;;15.12;90.01
72118;BME280;59992;47.490;8.736;2023-07-31T05:33:54;96723.77;;;15.20;89.89
72118;BME280;59992;47.490;8.736;2023-07-31T05:36:44;96729.17;;;15.28;89.36
72118;BME280;59992;47.490;8.736;2023-07-31T05:39:34;96725.86;;;15.34;89.00
72118;BME280;59992;47.490;8.736;2023-07-31T05:42:24;96730.13;;;15.38;89.08
72118;BME280;59992;47.490;8.736;2023-07-31T05:45:15;96734.17;;;15.47;88.76
72118;BME280;59992;47.490;8.736;2023-07-31T05:48:05;96732.10;;;15.51;88.77
72118;BME280;59992;47.490;8.736;2023-07-31T05:50:56;96732.48;;;15.53;88.82
72118;BME280;59992;47.490;8.736;2023-07-31T05:53:46;96728.63;;;15.58;89.83
72118;BME280;59992;47.490;8.736;2023-07-31T05:56:36;96729.52;;;15.63;88.48
72118;BME280;59992;47.490;8.736;2023-07-31T05:59:27;96728.83;;;15.67;88.47
72118;BME280;59992;47.490;8.736;2023-07-31T06:02:17;96735.14;;;15.73;89.24
72118;BME280;59992;47.490;8.736;2023-07-31T06:05:08;96737.41;;;15.78;89.27
72118;BME280;59992;47.490;8.736;2023-07-31T06:07:58;96734.16;;;15.84;88.10
72118;BME280;59992;47.490;8.736;2023-07-31T06:10:48;96727.58;;;15.88;88.51
72118;BME280;59992;47.490;8.736;2023-07-31T06:13:39;96727.95;;;15.91;88.96
72118;BME280;59992;47.490;8.736;2023-07-31T06:16:29;96724.02;;;15.96;89.08
72118;BME280;59992;47.490;8.736;2023-07-31T06:19:19;96715.86;;;15.94;86.34
72118;BME280;59992;47.490;8.736;2023-07-31T06:22:10;96712.67;;;16.05;86.57
72118;BME280;59992;47.490;8.736;2023-07-31T06:25:00;96712.13;;;16.08;84.27
72118;BME280;59992;47.490;8.736;2023-07-31T06:27:50;96717.02;;;16.16;84.44
72118;BME280;59992;47.490;8.736;2023-07-31T06:30:40;96717.95;;;16.26;82.43
72118;BME280;59992;47.490;8.736;2023-07-31T06:33:30;96714.36;;;16.36;80.65
72118;BME280;59992;47.490;8.736;2023-07-31T06:36:20;96710.46;;;16.50;81.85
72118;BME280;59992;47.490;8.736;2023-07-31T06:39:10;96709.06;;;16.64;81.73
72118;BME280;59992;47.490;8.736;2023-07-31T06:42:00;96712.48;;;16.76;79.86
72118;BME280;59992;47.490;8.736;2023-07-31T06:44:50;96716.64;;;16.88;80.09
72118;BME280;59992;47.490;8.736;2023-07-31T06:47:40;96726.10;;;16.99;78.83
72118;BME280;59992;47.490;8.736;2023-07-31T06:50:30;96729.67;;;17.10;80.03
72118;BME280;59992;47.490;8.736;2023-07-31T06:53:21;96728.34;;;17.20;76.46
72118;BME280;59992;47.490;8.736;2023-07-31T06:56:11;96725.69;;;17.31;74.99
72118;BME280;59992;47.490;8.736;2023-07-31T06:59:01;96728.60;;;17.55;76.72
72118;BME280;59992;47.490;8.736;2023-07-31T07:01:52;96713.67;;;17.79;74.54
72118;BME280;59992;47.490;8.736;2023-07-31T07:04:42;96704.98;;;18.09;73.36
72118;BME280;59992;47.490;8.736;2023-07-31T07:07:32;96695.85;;;18.42;71.04
72118;BME280;59992;47.490;8.736;2023-07-31T07:10:22;96689.22;;;18.64;66.82
72118;BME280;59992;47.490;8.736;2023-07-31T07:13:13;96683.80;;;18.88;67.36
72118;BME280;59992;47.490;8.736;2023-07-31T07:16:03;96679.66;;;19.09;66.91
72118;BME280;59992;47.490;8.736;2023-07-31T07:18:53;96680.90;;;19.21;65.80
72118;BME280;59992;47.490;8.736;2023-07-31T07:21:44;96677.60;;;19.25;64.32
72118;BME280;59992;47.490;8.736;2023-07-31T07:24:34;96674.11;;;19.31;64.48
72118;BME280;59992;47.490;8.736;2023-07-31T07:27:24;96673.05;;;19.43;64.19
72118;BME280;59992;47.490;8.736;2023-07-31T07:30:14;96675.12;;;19.83;64.76
72118;BME280;59992;47.490;8.736;2023-07-31T07:33:04;96674.46;;;20.21;62.43
72118;BME280;59992;47.490;8.736;2023-07-31T07:35:54;96676.23;;;20.56;59.92
72118;BME280;59992;47.490;8.736;2023-07-31T07:38:45;96682.06;;;20.88;59.27
72118;BME280;59992;47.490;8.736;2023-07-31T07:41:35;96680.64;;;20.98;57.60
72118;BME280;59992;47.490;8.736;2023-07-31T07:44:25;96679.16;;;21.11;57.12
72118;BME280;59992;47.490;8.736;2023-07-31T07:47:15;96676.90;;;21.21;57.46
72118;BME280;59992;47.490;8.736;2023-07-31T07:50:07;96681.63;;;21.48;56.22
72118;BME280;59992;47.490;8.736;2023-07-31T07:52:57;96683.59;;;21.77;55.36
72118;BME280;59992;47.490;8.736;2023-07-31T07:55:47;96697.16;;;22.33;54.23
72118;BME280;59992;47.490;8.736;2023-07-31T07:58:38;96695.92;;;22.82;54.87
72118;BME280;59992;47.490;8.736;2023-07-31T08:01:27;96702.14;;;23.38;52.64
72118;BME280;59992;47.490;8.736;2023-07-31T08:04:17;96704.45;;;23.56;50.36
72118;BME280;59992;47.490;8.736;2023-07-31T08:07:08;96697.73;;;23.68;47.36
72118;BME280;59992;47.490;8.736;2023-07-31T08:10:00;96692.88;;;23.95;47.23
72118;BME280;59992;47.490;8.736;2023-07-31T08:12:50;96688.92;;;24.13;46.84
72118;BME280;59992;47.490;8.736;2023-07-31T08:15:42;96686.23;;;24.43;47.72
72118;BME280;59992;47.490;8.736;2023-07-31T08:18:33;96688.77;;;24.76;46.59
72118;BME280;59992;47.490;8.736;2023-07-31T08:21:24;96681.77;;;24.95;45.89
72118;BME280;59992;47.490;8.736;2023-07-31T08:24:14;96672.98;;;25.32;44.78
72118;BME280;59992;47.490;8.736;2023-07-31T08:27:04;96670.21;;;25.79;44.69
72118;BME280;59992;47.490;8.736;2023-07-31T08:29:55;96663.02;;;25.75;41.44
72118;BME280;59992;47.490;8.736;2023-07-31T08:32:45;96666.81;;;25.75;42.32
72118;BME280;59992;47.490;8.736;2023-07-31T08:35:36;96662.59;;;25.62;43.92
72118;BME280;59992;47.490;8.736;2023-07-31T08:38:27;96658.97;;;25.32;42.44
72118;BME280;59992;47.490;8.736;2023-07-31T08:41:18;96660.54;;;24.84;43.32
72118;BME280;59992;47.490;8.736;2023-07-31T08:44:08;96661.37;;;24.64;45.02
72118;BME280;59992;47.490;8.736;2023-07-31T08:47:00;96658.09;;;24.49;46.40
72118;BME280;59992;47.490;8.736;2023-07-31T08:49:52;96659.15;;;24.41;44.94
72118;BME280;59992;47.490;8.736;2023-07-31T08:52:42;96663.44;;;24.04;44.46
72118;BME280;59992;47.490;8.736;2023-07-31T08:55:34;96654.86;;;23.77;45.31
72118;BME280;59992;47.490;8.736;2023-07-31T08:58:25;96650.98;;;23.81;45.68
72118;BME280;59992;47.490;8.736;2023-07-31T09:01:17;96646.00;;;24.07;47.15
72118;BME280;59992;47.490;8.736;2023-07-31T09:04:09;96638.95;;;24.48;46.45
72118;BME280;59992;47.490;8.736;2023-07-31T09:07:02;96638.88;;;25.00;47.34
72118;BME280;59992;47.490;8.736;2023-07-31T09:09:53;96638.16;;;25.34;45.85
72118;BME280;59992;47.490;8.736;2023-07-31T09:12:44;96631.23;;;25.78;44.05
72118;BME280;59992;47.490;8.736;2023-07-31T09:15:35;96630.06;;;25.81;42.17
72118;BME280;59992;47.490;8.736;2023-07-31T09:18:25;96629.44;;;25.78;41.91
72118;BME280;59992;47.490;8.736;2023-07-31T09:21:15;96637.17;;;25.75;43.06
72118;BME280;59992;47.490;8.736;2023-07-31T09:24:05;96633.96;;;25.74;41.54
72118;BME280;59992;47.490;8.736;2023-07-31T09:26:56;96630.23;;;26.01;42.49
72118;BME280;59992;47.490;8.736;2023-07-31T09:29:59;96625.58;;;25.88;41.09
72118;BME280;59992;47.490;8.736;2023-07-31T09:32:51;96629.82;;;25.65;41.84
72118;BME280;59992;47.490;8.736;2023-07-31T09:35:41;96626.02;;;25.37;41.48
72118;BME280;59992;47.490;8.736;2023-07-31T09:38:31;96620.78;;;25.49;42.19
72118;BME280;59992;47.490;8.736;2023-07-31T09:41:22;96617.86;;;25.36;40.87
72118;BME280;59992;47.490;8.736;2023-07-31T09:44:12;96616.59;;;25.38;43.16
72118;BME280;59992;47.490;8.736;2023-07-31T09:47:03;96625.44;;;25.27;41.02
72118;BME280;59992;47.490;8.736;2023-07-31T09:49:53;96625.43;;;25.33;42.64
72118;BME280;59992;47.490;8.736;2023-07-31T09:52:43;96620.52;;;25.41;42.36
72118;BME280;59992;47.490;8.736;2023-07-31T09:55:34;96615.79;;;25.34;40.94
72118;BME280;59992;47.490;8.736;2023-07-31T09:58:24;96609.54;;;25.06;42.44
72118;BME280;59992;47.490;8.736;2023-07-31T10:01:18;96610.08;;;24.81;42.28
72118;BME280;59992;47.490;8.736;2023-07-31T10:04:09;96604.91;;;24.75;42.29
72118;BME280;59992;47.490;8.736;2023-07-31T10:07:01;96604.08;;;24.57;41.72
72118;BME280;59992;47.490;8.736;2023-07-31T10:09:52;96603.43;;;24.36;42.98
72118;BME280;59992;47.490;8.736;2023-07-31T10:12:45;96597.20;;;24.31;43.01
72118;BME280;59992;47.490;8.736;2023-07-31T10:15:35;96588.92;;;24.03;42.37
72118;BME280;59992;47.490;8.736;2023-07-31T10:18:26;96587.77;;;23.92;44.08
72118;BME280;59992;47.490;8.736;2023-07-31T10:21:17;96582.77;;;23.77;44.02
72118;BME280;59992;47.490;8.736;2023-07-31T10:24:08;96575.55;;;23.55;43.81
72118;BME280;59992;47.490;8.736;2023-07-31T10:26:59;96569.78;;;23.63;44.90
72118;BME280;59992;47.490;8.736;2023-07-31T10:29:51;96569.15;;;23.57;46.01
72118;BME280;59992;47.490;8.736;2023-07-31T10:32:43;96566.11;;;23.62;45.38
72118;BME280;59992;47.490;8.736;2023-07-31T10:35:34;96552.73;;;23.60;45.05
72118;BME280;59992;47.490;8.736;2023-07-31T10:38:25;96551.64;;;23.48;44.25
72118;BME280;59992;47.490;8.736;2023-07-31T10:41:15;96538.41;;;23.46;45.77
72118;BME280;59992;47.490;8.736;2023-07-31T10:44:08;96540.27;;;23.52;46.36
72118;BME280;59992;47.490;8.736;2023-07-31T10:46:58;96541.73;;;23.50;45.21
72118;BME280;59992;47.490;8.736;2023-07-31T10:49:50;96531.52;;;23.34;44.58
72118;BME280;59992;47.490;8.736;2023-07-31T10:52:40;96523.48;;;23.32;46.07
72118;BME280;59992;47.490;8.736;2023-07-31T10:55:38;96521.77;;;23.26;46.40
72118;BME280;59992;47.490;8.736;2023-07-31T10:58:29;96515.16;;;23.12;45.80
72118;BME280;59992;47.490;8.736;2023-07-31T11:01:20;96512.14;;;23.04;47.26
72118;BME280;59992;47.490;8.736;2023-07-31T11:04:13;96506.98;;;23.10;48.25
72118;BME280;59992;47.490;8.736;2023-07-31T11:07:04;96503.98;;;23.10;46.94
72118;BME280;59992;47.490;8.736;2023-07-31T11:09:57;96496.84;;;22.94;45.29
72118;BME280;59992;47.490;8.736;2023-07-31T11:12:48;96489.04;;;22.98;46.07
72118;BME280;59992;47.490;8.736;2023-07-31T11:15:38;96484.47;;;22.96;46.93
72118;BME280;59992;47.490;8.736;2023-07-31T11:18:29;96483.11;;;22.91;44.77
72118;BME280;59992;47.490;8.736;2023-07-31T11:21:20;96474.51;;;22.73;44.47
72118;BME280;59992;47.490;8.736;2023-07-31T11:24:13;96469.15;;;22.68;44.50
72118;BME280;59992;47.490;8.736;2023-07-31T11:27:08;96472.73;;;22.69;46.15
72118;BME280;59992;47.490;8.736;2023-07-31T11:30:03;96473.88;;;22.72;45.32
72118;BME280;59992;47.490;8.736;2023-07-31T11:32:54;96466.77;;;22.74;46.05
72118;BME280;59992;47.490;8.736;2023-07-31T11:35:46;96471.61;;;22.72;45.63
72118;BME280;59992;47.490;8.736;2023-07-31T11:38:37;96473.02;;;22.68;45.35
72118;BME280;59992;47.490;8.736;2023-07-31T11:41:30;96469.96;;;22.67;44.81
72118;BME280;59992;47.490;8.736;2023-07-31T11:44:20;96470.70;;;22.61;45.16
72118;BME280;59992;47.490;8.736;2023-07-31T11:47:12;96478.39;;;22.44;43.79
72118;BME280;59992;47.490;8.736;2023-07-31T11:50:04;96479.01;;;22.46;43.74
72118;BME280;59992;47.490;8.736;2023-07-31T11:52:58;96473.36;;;22.49;45.15
72118;BME280;59992;47.490;8.736;2023-07-31T11:55:49;96466.69;;;22.47;44.90
72118;BME280;59992;47.490;8.736;2023-07-31T11:58:40;96458.48;;;22.55;44.75
72118;BME280;59992;47.490;8.736;2023-07-31T12:01:32;96458.90;;;22.65;46.51
72118;BME280;59992;47.490;8.736;2023-07-31T12:04:23;96458.91;;;22.75;46.13
72118;BME280;59992;47.490;8.736;2023-07-31T12:07:14;96457.53;;;22.77;44.81
72118;BME280;59992;47.490;8.736;2023-07-31T12:10:05;96453.61;;;22.74;44.73
72118;BME280;59992;47.490;8.736;2023-07-31T12:13:00;96452.39;;;22.80;46.18
72118;BME280;59992;47.490;8.736;2023-07-31T12:15:55;96447.88;;;22.88;44.97
72118;BME280;59992;47.490;8.736;2023-07-31T12:18:46;96441.11;;;22.91;45.26
72118;BME280;59992;47.490;8.736;2023-07-31T12:21:40;96440.98;;;22.90;46.83
72118;BME280;59992;47.490;8.736;2023-07-31T12:24:30;96436.79;;;23.11;45.67
72118;BME280;59992;47.490;8.736;2023-07-31T12:27:21;96435.41;;;23.26;45.90
72118;BME280;59992;47.490;8.736;2023-07-31T12:30:27;96425.33;;;23.29;44.82
72118;BME280;59992;47.490;8.736;2023-07-31T12:33:20;96416.67;;;23.36;45.12
72118;BME280;59992;47.490;8.736;2023-07-31T12:36:11;96415.19;;;23.42;46.02
72118;BME280;59992;47.490;8.736;2023-07-31T12:39:01;96412.17;;;23.51;44.51
72118;BME280;59992;47.490;8.736;2023-07-31T12:41:52;96407.58;;;23.49;45.44
72118;BME280;59992;47.490;8.736;2023-07-31T12:44:42;96407.30;;;23.50;47.14
72118;BME280;59992;47.490;8.736;2023-07-31T12:47:32;96407.20;;;23.58;46.51
72118;BME280;59992;47.490;8.736;2023-07-31T12:50:22;96401.61;;;23.62;47.59
72118;BME280;59992;47.490;8.736;2023-07-31T12:53:12;96393.38;;;23.67;46.02
72118;BME280;59992;47.490;8.736;2023-07-31T12:56:02;96387.53;;;23.64;45.80
72118;BME280;59992;47.490;8.736;2023-07-31T12:58:53;96384.52;;;23.55;45.57
72118;BME280;59992;47.490;8.736;2023-07-31T13:01:43;96374.63;;;23.45;45.50
72118;BME280;59992;47.490;8.736;2023-07-31T13:04:33;96370.52;;;23.47;46.28
72118;BME280;59992;47.490;8.736;2023-07-31T13:07:24;96364.48;;;23.46;42.92
72118;BME280;59992;47.490;8.736;2023-07-31T13:10:14;96360.41;;;23.53;43.98
72118;BME280;59992;47.490;8.736;2023-07-31T13:13:04;96356.80;;;23.56;44.22
72118;BME280;59992;47.490;8.736;2023-07-31T13:15:55;96347.47;;;23.60;44.01
72118;BME280;59992;47.490;8.736;2023-07-31T13:18:45;96342.67;;;23.68;43.48
72118;BME280;59992;47.490;8.736;2023-07-31T13:21:35;96343.41;;;23.72;43.10
72118;BME280;59992;47.490;8.736;2023-07-31T13:24:25;96338.15;;;23.81;44.04
72118;BME280;59992;47.490;8.736;2023-07-31T13:27:15;96329.86;;;23.89;43.59
72118;BME280;59992;47.490;8.736;2023-07-31T13:30:10;96332.05;;;23.99;43.82
72118;BME280;59992;47.490;8.736;2023-07-31T13:33:00;96327.05;;;24.09;43.07
72118;BME280;59992;47.490;8.736;2023-07-31T13:35:50;96325.13;;;24.11;42.36
72118;BME280;59992;47.490;8.736;2023-07-31T13:38:40;96326.70;;;24.14;40.66
72118;BME280;59992;47.490;8.736;2023-07-31T13:41:30;96325.56;;;24.24;41.73
72118;BME280;59992;47.490;8.736;2023-07-31T13:44:20;96323.87;;;24.36;41.85
72118;BME280;59992;47.490;8.736;2023-07-31T13:47:10;96326.71;;;24.43;41.84
72118;BME280;59992;47.490;8.736;2023-07-31T13:50:01;96327.77;;;24.52;41.20
72118;BME280;59992;47.490;8.736;2023-07-31T13:52:51;96325.58;;;24.52;41.42
72118;BME280;59992;47.490;8.736;2023-07-31T13:55:41;96318.93;;;24.60;42.39
72118;BME280;59992;47.490;8.736;2023-07-31T13:58:34;96314.54;;;24.63;40.91
72118;BME280;59992;47.490;8.736;2023-07-31T14:01:24;96311.29;;;24.68;42.36
72118;BME280;59992;47.490;8.736;2023-07-31T14:04:15;96303.67;;;24.72;41.31
72118;BME280;59992;47.490;8.736;2023-07-31T14:07:06;96303.23;;;24.78;43.41
72118;BME280;59992;47.490;8.736;2023-07-31T14:09:56;96308.33;;;24.88;43.42
72118;BME280;59992;47.490;8.736;2023-07-31T14:12:47;96307.02;;;24.89;43.28
72118;BME280;59992;47.490;8.736;2023-07-31T14:15:37;96306.95;;;24.96;43.06
72118;BME280;59992;47.490;8.736;2023-07-31T14:18:28;96299.10;;;25.01;42.69
72118;BME280;59992;47.490;8.736;2023-07-31T14:21:18;96303.14;;;25.06;43.81
72118;BME280;59992;47.490;8.736;2023-07-31T14:24:08;96305.90;;;25.03;42.86
72118;BME280;59992;47.490;8.736;2023-07-31T14:26:59;96303.89;;;24.97;42.95
72118;BME280;59992;47.490;8.736;2023-07-31T14:29:49;96302.45;;;24.96;42.87
72118;BME280;59992;47.490;8.736;2023-07-31T14:32:39;96296.73;;;25.01;42.34
72118;BME280;59992;47.490;8.736;2023-07-31T14:35:29;96291.41;;;25.07;43.28
72118;BME280;59992;47.490;8.736;2023-07-31T14:38:19;96292.81;;;25.07;43.84
72118;BME280;59992;47.490;8.736;2023-07-31T14:41:09;96288.14;;;25.00;41.38
72118;BME280;59992;47.490;8.736;2023-07-31T14:44:00;96282.94;;;25.09;43.36
72118;BME280;59992;47.490;8.736;2023-07-31T14:46:50;96282.08;;;25.11;45.27
72118;BME280;59992;47.490;8.736;2023-07-31T14:49:40;96280.83;;;25.14;43.54
72118;BME280;59992;47.490;8.736;2023-07-31T14:52:31;96280.20;;;25.13;45.87
72118;BME280;59992;47.490;8.736;2023-07-31T14:55:21;96280.21;;;25.20;45.54
72118;BME280;59992;47.490;8.736;2023-07-31T14:58:11;96281.70;;;25.23;45.56
72118;BME280;59992;47.490;8.736;2023-07-31T15:01:03;96279.89;;;25.22;45.39
72118;BME280;59992;47.490;8.736;2023-07-31T15:03:53;96278.68;;;25.23;47.75